Grand Marsh, Wisconsin
Current Conditions -  °F | °C
As of 4:56 PM on Thursday 23 Oct 2014 (Local Time) from KY50 Reporting Station
Haze Haze  
Wind Chill: 48°   Ceiling: 500
Heat Index: 48°   Visibility: 1.7mi
Dew Point: 47°   Wind: 0mph
Humidity: 97%   Direction: NA
Pressure: 30.05"   Gusts: NA
Location:  43.89°N, 89.71°W
Report Text: KY50 232156Z AUTO 00000KT 1 3/4SM BR BKN005 OVC012 09/08 A3005 RMK AO2 TSNO T00880083 CIG 001V008 RAE06 P0000 SLP179
Loading
Personal Weather Stations






























Interactive Weather Map
Tropical Storm Tracking
New forecast layout! Learn more

10-Day Weather Forecast

Advertisements
Track Severe Weather on mobile